createdAt,value
2019-03-25T00:02:16.426Z,41.77
2019-03-25T00:04:46.989Z,41.81
2019-03-25T00:07:17.321Z,41.86
2019-03-25T00:09:47.542Z,41.94
2019-03-25T00:12:17.797Z,41.98
2019-03-25T00:14:48.005Z,42.04
2019-03-25T00:17:18.289Z,42.12
2019-03-25T00:19:48.516Z,42.16
2019-03-25T00:22:18.802Z,42.24
2019-03-25T00:24:49.368Z,42.30
2019-03-25T00:27:19.716Z,42.37
2019-03-25T00:29:49.934Z,42.41
2019-03-25T00:32:20.163Z,42.48
2019-03-25T00:34:50.427Z,42.53
2019-03-25T00:37:20.662Z,42.59
2019-03-25T00:39:50.928Z,42.65
2019-03-25T00:42:21.142Z,42.72
2019-03-25T00:44:51.380Z,42.75
2019-03-25T00:47:21.795Z,42.80
2019-03-25T00:49:52.357Z,42.88
2019-03-25T00:52:23.002Z,42.93
2019-03-25T00:54:53.660Z,43.03
2019-03-25T00:57:23.948Z,43.06
2019-03-25T00:59:54.258Z,43.11
2019-03-25T01:02:24.840Z,43.16
2019-03-25T01:04:56.428Z,43.21
2019-03-25T01:07:27.085Z,43.25
2019-03-25T01:09:57.398Z,43.29
2019-03-25T01:12:27.970Z,43.33
2019-03-25T01:14:58.280Z,43.37
2019-03-25T01:17:28.492Z,43.40
2019-03-25T01:19:58.729Z,43.43
2019-03-25T01:22:28.978Z,43.46
2019-03-25T01:25:02.269Z,43.52
2019-03-25T01:27:31.468Z,43.57
2019-03-25T01:30:01.815Z,43.61
2019-03-25T01:32:32.368Z,43.67
2019-03-25T01:35:02.689Z,43.71
2019-03-25T01:37:32.901Z,43.75
2019-03-25T01:40:03.586Z,43.80
2019-03-25T01:42:34.172Z,43.85
2019-03-25T01:45:07.274Z,43.90
2019-03-25T01:47:37.580Z,43.96
2019-03-25T01:50:08.543Z,44.02
2019-03-25T01:52:39.125Z,44.06
2019-03-25T01:55:13.709Z,44.11
2019-03-25T01:57:42.722Z,44.17
2019-03-25T02:00:13.614Z,44.20
2019-03-25T02:02:44.210Z,44.26
2019-03-25T02:05:14.907Z,44.29
2019-03-25T02:07:45.627Z,44.34
2019-03-25T02:10:17.791Z,44.40
2019-03-25T02:12:48.011Z,44.45
2019-03-25T02:15:19.323Z,44.52
2019-03-25T02:17:49.891Z,44.56
2019-03-25T02:20:26.294Z,44.63
2019-03-25T02:22:52.763Z,44.65
2019-03-25T02:25:25.697Z,44.69
2019-03-25T02:27:55.845Z,44.73
2019-03-25T02:30:26.446Z,44.76
2019-03-25T02:32:57.115Z,44.82
2019-03-25T02:35:27.754Z,44.87
2019-03-25T02:37:58.050Z,44.89
2019-03-25T02:40:28.280Z,44.94
2019-03-25T02:42:58.520Z,44.95
2019-03-25T02:45:28.736Z,45.00
2019-03-25T02:47:58.979Z,45.04
2019-03-25T02:50:29.218Z,45.08
2019-03-25T02:52:59.433Z,45.12
2019-03-25T02:55:41.510Z,45.17
2019-03-25T02:58:01.974Z,45.21
2019-03-25T03:00:36.214Z,45.25
2019-03-25T03:03:07.683Z,45.28
2019-03-25T03:05:38.416Z,45.34
2019-03-25T03:08:09.053Z,45.39
2019-03-25T03:10:41.388Z,45.44
2019-03-25T03:13:12.072Z,45.48
2019-03-25T03:15:42.392Z,45.53
2019-03-25T03:18:12.631Z,45.59
2019-03-25T03:20:42.907Z,45.64
2019-03-25T03:23:13.363Z,45.68
2019-03-25T03:25:56.479Z,45.74
2019-03-25T03:28:16.311Z,45.77
2019-03-25T03:30:47.011Z,45.82
2019-03-25T03:33:17.344Z,45.87
2019-03-25T03:35:47.554Z,45.91
2019-03-25T03:38:18.113Z,45.98
2019-03-25T03:40:48.821Z,46.00
2019-03-25T03:43:19.116Z,46.06
2019-03-25T03:45:49.353Z,46.12
2019-03-25T03:48:19.582Z,46.17
2019-03-25T03:50:50.854Z,46.20
2019-03-25T03:53:21.168Z,46.23
2019-03-25T03:55:53.245Z,46.27
2019-03-25T03:58:26.409Z,46.31
2019-03-25T04:00:56.729Z,46.37
2019-03-25T04:03:28.571Z,46.40
2019-03-25T04:05:58.907Z,46.46
2019-03-25T04:08:29.147Z,46.51
2019-03-25T04:10:59.778Z,46.53
2019-03-25T04:13:30.098Z,46.58
2019-03-25T04:16:01.713Z,46.62
2019-03-25T04:18:32.577Z,46.68
2019-03-25T04:21:03.223Z,46.71
2019-03-25T04:23:33.728Z,46.76
2019-03-25T04:26:04.052Z,46.79
2019-03-25T04:28:35.209Z,46.86
2019-03-25T04:31:05.819Z,46.91
2019-03-25T04:33:36.091Z,46.97
2019-03-25T04:36:06.392Z,47.02
2019-03-25T04:38:36.616Z,47.06
2019-03-25T04:41:07.217Z,47.12
2019-03-25T04:43:37.854Z,47.16
2019-03-25T04:46:08.521Z,47.23
2019-03-25T04:48:39.198Z,47.28
2019-03-25T04:51:09.547Z,47.32
2019-03-25T04:53:59.096Z,47.36
2019-03-25T04:56:39.068Z,47.41
2019-03-25T04:59:01.253Z,47.44
2019-03-25T05:01:31.510Z,47.49
2019-03-25T05:04:01.776Z,47.54
2019-03-25T05:06:32.373Z,47.59
2019-03-25T05:09:02.878Z,47.63
2019-03-25T05:11:33.098Z,47.67
2019-03-25T05:14:03.342Z,47.73
2019-03-25T05:16:33.942Z,47.80
2019-03-25T05:19:04.598Z,47.85
2019-03-25T05:21:34.920Z,47.90
2019-03-25T05:24:05.180Z,47.98
2019-03-25T05:26:35.396Z,48.02
2019-03-25T05:29:05.996Z,48.08
2019-03-25T05:31:36.637Z,48.14
2019-03-25T05:34:07.291Z,48.21
2019-03-25T05:36:37.920Z,48.24
2019-03-25T05:39:10.137Z,48.27
2019-03-25T05:41:40.784Z,48.31
2019-03-25T05:44:11.468Z,48.35
2019-03-25T05:46:41.819Z,48.41
2019-03-25T05:49:12.045Z,48.46
2019-03-25T05:51:42.668Z,48.51
2019-03-25T05:54:12.970Z,48.56
2019-03-25T05:56:43.237Z,48.63
2019-03-25T05:59:13.825Z,48.69
2019-03-25T06:01:44.435Z,48.76
2019-03-25T06:04:15.072Z,48.82
2019-03-25T06:06:45.364Z,48.86
2019-03-25T06:09:15.960Z,48.91
2019-03-25T06:11:46.244Z,48.95
2019-03-25T06:14:16.799Z,49.03
2019-03-25T06:16:47.442Z,49.08
2019-03-25T06:19:19.265Z,49.10
2019-03-25T06:21:50.972Z,49.16
2019-03-25T06:24:21.624Z,49.20
2019-03-25T06:26:51.918Z,49.23
2019-03-25T06:29:22.526Z,49.30
2019-03-25T06:31:54.848Z,49.33
2019-03-25T06:34:25.191Z,49.36
2019-03-25T06:36:55.753Z,49.33
2019-03-25T06:39:26.883Z,49.27
2019-03-25T06:41:57.533Z,49.22
2019-03-25T06:44:29.408Z,49.20
2019-03-25T06:46:59.693Z,49.12
2019-03-25T06:49:30.260Z,49.05
2019-03-25T06:52:00.613Z,48.98
2019-03-25T06:54:31.036Z,48.94
2019-03-25T06:57:01.678Z,48.92
2019-03-25T06:59:31.989Z,48.88
2019-03-25T07:02:02.613Z,48.84
2019-03-25T07:04:33.237Z,48.77
2019-03-25T07:07:03.554Z,48.65
2019-03-25T07:09:37.137Z,48.52
2019-03-25T07:12:07.438Z,48.38
2019-03-25T07:14:37.658Z,48.21
2019-03-25T07:17:08.267Z,48.09
2019-03-25T07:19:41.358Z,47.95
2019-03-25T07:22:17.307Z,47.83
2019-03-25T07:24:46.431Z,47.73
2019-03-25T07:27:17.014Z,47.62
2019-03-25T07:29:47.326Z,47.51
2019-03-25T07:32:17.555Z,47.37
2019-03-25T07:34:48.194Z,47.18
2019-03-25T07:37:18.491Z,47.01
2019-03-25T07:39:48.701Z,46.86
2019-03-25T07:42:18.949Z,46.67
2019-03-25T07:44:49.581Z,46.50
2019-03-25T07:47:20.209Z,46.29
2019-03-25T07:49:50.855Z,46.13
2019-03-25T07:52:21.199Z,45.95
2019-03-25T07:54:51.421Z,45.73
2019-03-25T07:57:21.658Z,45.54
2019-03-25T07:59:51.900Z,45.32
2019-03-25T08:02:22.200Z,45.11
2019-03-25T08:04:52.806Z,44.91
2019-03-25T08:07:23.475Z,44.67
2019-03-25T08:09:54.158Z,44.46
2019-03-25T08:12:24.793Z,44.26
2019-03-25T08:14:56.994Z,44.05
2019-03-25T08:17:27.291Z,43.82
2019-03-25T08:19:57.529Z,43.65
2019-03-25T08:22:27.839Z,43.40
2019-03-25T08:24:58.424Z,43.18
2019-03-25T08:27:29.060Z,43.01
2019-03-25T08:29:59.836Z,42.83
2019-03-25T08:32:31.629Z,42.65
2019-03-25T08:35:02.388Z,42.48
2019-03-25T08:37:32.702Z,42.34
2019-03-25T08:40:03.392Z,42.21
2019-03-25T08:42:35.818Z,42.12
2019-03-25T08:45:07.924Z,42.03
2019-03-25T08:47:38.254Z,41.96
2019-03-25T08:50:10.499Z,41.90
2019-03-25T08:52:40.792Z,41.86
2019-03-25T08:55:11.506Z,41.82
2019-03-25T08:57:41.923Z,41.79
2019-03-25T09:00:12.937Z,41.67
2019-03-25T09:02:43.164Z,41.57
2019-03-25T09:05:13.814Z,41.42
2019-03-25T09:07:44.046Z,41.24
2019-03-25T09:10:15.090Z,41.05
2019-03-25T09:12:45.486Z,40.86
2019-03-25T09:15:16.002Z,40.64
2019-03-25T09:17:46.598Z,40.42
2019-03-25T09:20:17.451Z,40.17
2019-03-25T09:22:51.055Z,39.92
2019-03-25T09:25:22.005Z,39.68
2019-03-25T09:27:52.362Z,39.46
2019-03-25T09:30:53.096Z,39.25
2019-03-25T09:33:23.794Z,39.10
2019-03-25T09:35:54.436Z,38.88
2019-03-25T09:38:24.758Z,38.75
2019-03-25T09:40:55.396Z,38.63
2019-03-25T09:43:25.696Z,38.51
2019-03-25T09:45:57.930Z,38.43
2019-03-25T09:48:28.591Z,38.43
2019-03-25T09:50:58.937Z,38.39
2019-03-25T09:53:29.157Z,38.31
2019-03-25T09:55:59.491Z,38.23
2019-03-25T09:58:36.624Z,38.07
2019-03-25T10:01:03.618Z,37.93
2019-03-25T10:03:33.846Z,37.81
2019-03-25T10:06:04.158Z,37.78
2019-03-25T10:08:34.748Z,37.71
2019-03-25T10:11:05.729Z,37.64
2019-03-25T10:13:36.401Z,37.56
2019-03-25T10:16:06.773Z,37.49
2019-03-25T10:18:36.974Z,37.42
2019-03-25T10:21:07.349Z,37.31
2019-03-25T10:23:38.753Z,37.21
2019-03-25T10:26:09.392Z,37.08
2019-03-25T10:28:48.678Z,36.95
2019-03-25T10:31:11.622Z,36.82
2019-03-25T10:33:41.868Z,36.70
2019-03-25T10:36:12.062Z,36.61
2019-03-25T10:38:42.297Z,36.54
2019-03-25T10:41:12.505Z,36.48
2019-03-25T10:43:42.723Z,36.43
2019-03-25T10:46:14.588Z,36.35
2019-03-25T10:48:44.856Z,36.25
2019-03-25T10:51:16.490Z,36.18
2019-03-25T10:53:47.741Z,36.12
2019-03-25T10:56:17.955Z,36.08
2019-03-25T10:58:50.707Z,36.03
2019-03-25T11:01:21.479Z,35.98
2019-03-25T11:03:53.805Z,35.92
2019-03-25T11:06:24.457Z,35.84
2019-03-25T11:08:55.486Z,35.79
2019-03-25T11:11:26.271Z,35.76
2019-03-25T11:13:56.598Z,35.71
2019-03-25T11:16:26.804Z,35.67
2019-03-25T11:18:57.038Z,35.63
2019-03-25T11:21:28.661Z,35.60
2019-03-25T11:23:58.973Z,35.58
2019-03-25T11:26:29.197Z,35.52
2019-03-25T11:29:04.611Z,35.46
2019-03-25T11:31:32.504Z,35.43
2019-03-25T11:34:02.750Z,35.37
2019-03-25T11:36:33.037Z,35.33
2019-03-25T11:39:05.317Z,35.28
2019-03-25T11:41:37.374Z,35.22
2019-03-25T11:44:07.575Z,35.18
2019-03-25T11:46:38.066Z,35.18
2019-03-25T11:49:08.309Z,35.16
2019-03-25T11:51:38.513Z,35.16
2019-03-25T11:54:08.842Z,35.15
2019-03-25T11:56:39.106Z,35.14
2019-03-25T11:59:18.345Z,35.09
2019-03-25T12:01:41.272Z,35.05
2019-03-25T12:04:11.846Z,35.02
2019-03-25T12:06:42.518Z,35.01
2019-03-25T12:09:13.188Z,35.00
2019-03-25T12:11:45.018Z,35.01
2019-03-25T12:14:15.575Z,35.01
2019-03-25T12:16:45.869Z,35.04
2019-03-25T12:19:16.077Z,35.04
2019-03-25T12:21:46.317Z,35.04
2019-03-25T12:24:16.521Z,35.03
2019-03-25T12:26:46.762Z,35.03
2019-03-25T12:29:16.974Z,35.01
2019-03-25T12:31:47.182Z,34.99
2019-03-25T12:34:17.526Z,34.95
2019-03-25T12:36:47.753Z,34.92
2019-03-25T12:39:18.398Z,34.89
2019-03-25T12:41:49.071Z,34.86
2019-03-25T12:44:19.794Z,34.85
2019-03-25T12:46:50.069Z,34.86
2019-03-25T12:49:20.402Z,34.85
2019-03-25T12:51:50.695Z,34.87
2019-03-25T12:54:22.744Z,34.86
2019-03-25T12:56:55.140Z,34.81
2019-03-25T12:59:25.731Z,34.77
2019-03-25T13:01:56.007Z,34.70
2019-03-25T13:04:27.572Z,34.62
2019-03-25T13:06:58.100Z,34.57
2019-03-25T13:09:28.346Z,34.52
2019-03-25T13:11:58.965Z,34.52
2019-03-25T13:14:30.803Z,34.48
2019-03-25T13:17:01.406Z,34.44
2019-03-25T13:19:32.087Z,34.44
2019-03-25T13:22:02.697Z,34.44
2019-03-25T13:24:33.758Z,34.45
2019-03-25T13:27:04.458Z,34.45
2019-03-25T13:29:35.304Z,34.42
2019-03-25T13:32:05.949Z,34.42
2019-03-25T13:34:38.010Z,34.43
2019-03-25T13:37:08.274Z,34.44
2019-03-25T13:39:38.491Z,34.42
2019-03-25T13:42:08.720Z,34.44
2019-03-25T13:44:39.289Z,34.41
2019-03-25T13:47:09.670Z,34.38
2019-03-25T13:49:39.984Z,34.37
2019-03-25T13:52:10.639Z,34.39
2019-03-25T13:54:41.459Z,34.43
2019-03-25T13:57:11.693Z,34.42
2019-03-25T13:59:41.918Z,34.46
2019-03-25T14:02:12.159Z,34.44
2019-03-25T14:04:42.854Z,34.42
2019-03-25T14:07:13.523Z,34.43
2019-03-25T14:09:43.811Z,34.44
2019-03-25T14:12:14.396Z,34.44
2019-03-25T14:14:46.025Z,34.46
2019-03-25T14:17:16.673Z,34.44
2019-03-25T14:19:46.980Z,34.45
2019-03-25T14:22:17.203Z,34.42
2019-03-25T14:24:47.437Z,34.41
2019-03-25T14:27:17.667Z,34.39
2019-03-25T14:29:47.906Z,34.39
2019-03-25T14:32:18.121Z,34.41
2019-03-25T14:34:48.370Z,34.38
2019-03-25T14:37:19.339Z,34.37
2019-03-25T14:39:49.975Z,34.38
2019-03-25T14:42:21.463Z,34.36
2019-03-25T14:44:51.860Z,34.34
2019-03-25T14:47:22.168Z,34.31
2019-03-25T14:49:54.283Z,34.29
2019-03-25T14:52:24.562Z,34.29
2019-03-25T14:54:54.779Z,34.25
2019-03-25T14:57:25.020Z,34.23
2019-03-25T14:59:55.297Z,34.21
2019-03-25T15:02:25.680Z,34.23
2019-03-25T15:04:57.494Z,34.19
2019-03-25T15:07:29.827Z,34.19
2019-03-25T15:10:01.742Z,34.19
2019-03-25T15:12:33.493Z,34.22
2019-03-25T15:15:08.094Z,34.22
2019-03-25T15:17:39.460Z,34.25
2019-03-25T15:20:10.497Z,34.30
2019-03-25T15:22:40.876Z,34.33
2019-03-25T15:25:14.140Z,34.38
2019-03-25T15:27:44.872Z,34.45
2019-03-25T15:30:16.516Z,34.48
2019-03-25T15:32:46.853Z,34.54
2019-03-25T15:35:17.072Z,34.61
2019-03-25T15:37:47.717Z,34.67
2019-03-25T15:40:18.710Z,34.74
2019-03-25T15:42:49.008Z,34.79
2019-03-25T15:45:19.583Z,34.88
2019-03-25T15:47:50.158Z,34.95
2019-03-25T15:50:21.244Z,35.04
2019-03-25T15:52:51.801Z,35.14
2019-03-25T15:55:22.077Z,35.23
2019-03-25T15:57:54.178Z,35.32
2019-03-25T16:00:24.579Z,35.44
2019-03-25T16:02:54.919Z,35.56
2019-03-25T16:05:25.539Z,35.68
2019-03-25T16:07:55.900Z,35.81
2019-03-25T16:10:28.475Z,35.92
2019-03-25T16:12:59.634Z,36.05
2019-03-25T16:15:42.522Z,36.15
2019-03-25T16:18:33.635Z,36.23
2019-03-25T16:21:04.681Z,36.32
2019-03-25T16:23:36.117Z,36.39
2019-03-25T16:26:07.253Z,36.48
2019-03-25T16:28:39.446Z,36.56
2019-03-25T16:31:09.680Z,36.65
2019-03-25T16:33:40.792Z,36.74
2019-03-25T16:36:13.065Z,36.84
2019-03-25T16:38:46.251Z,36.93
2019-03-25T16:41:16.813Z,37.03
2019-03-25T16:43:47.140Z,37.11
2019-03-25T16:46:17.351Z,37.20
2019-03-25T16:48:49.135Z,37.25
2019-03-25T16:51:19.768Z,37.33
2019-03-25T16:53:52.187Z,37.38
2019-03-25T16:56:22.811Z,37.45
2019-03-25T16:58:53.100Z,37.53
2019-03-25T17:01:23.402Z,37.61
2019-03-25T17:03:54.112Z,37.67
2019-03-25T17:06:24.723Z,37.72
2019-03-25T17:08:55.007Z,37.78
2019-03-25T17:11:25.618Z,37.83
2019-03-25T17:13:56.276Z,37.88
2019-03-25T17:16:26.615Z,37.91
2019-03-25T17:18:57.583Z,37.94
2019-03-25T17:21:27.858Z,38.00
2019-03-25T17:23:58.411Z,38.07
2019-03-25T17:26:28.740Z,38.10
2019-03-25T17:28:59.031Z,38.18
2019-03-25T17:31:29.273Z,38.25
2019-03-25T17:33:59.845Z,38.30
2019-03-25T17:36:30.531Z,38.36
2019-03-25T17:39:00.884Z,38.44
2019-03-25T17:41:32.775Z,38.52
2019-03-25T17:44:03.758Z,38.57
2019-03-25T17:46:34.392Z,38.62
2019-03-25T17:49:04.980Z,38.70
2019-03-25T17:51:35.268Z,38.76
2019-03-25T17:54:05.584Z,38.82
2019-03-25T17:56:36.283Z,38.91
2019-03-25T17:59:06.972Z,38.98
2019-03-25T18:01:37.920Z,39.09
2019-03-25T18:04:08.212Z,39.16
2019-03-25T18:06:40.329Z,39.23
2019-03-25T18:09:11.133Z,39.33
2019-03-25T18:11:41.517Z,39.43
2019-03-25T18:14:11.741Z,39.51
2019-03-25T18:16:42.038Z,39.58
2019-03-25T18:19:12.262Z,39.64
2019-03-25T18:21:42.526Z,39.69
2019-03-25T18:24:12.719Z,39.74
2019-03-25T18:26:42.959Z,39.82
2019-03-25T18:29:13.256Z,39.87
2019-03-25T18:31:44.050Z,39.93
2019-03-25T18:34:14.732Z,39.97
2019-03-25T18:36:45.374Z,40.05
2019-03-25T18:39:15.699Z,40.11
2019-03-25T18:41:45.912Z,40.15
2019-03-25T18:44:16.150Z,40.22
2019-03-25T18:46:46.370Z,40.27
2019-03-25T18:49:16.694Z,40.33
2019-03-25T18:51:46.923Z,40.38
2019-03-25T18:54:17.171Z,40.45
2019-03-25T18:56:48.995Z,40.52
2019-03-25T18:59:20.191Z,40.58
2019-03-25T19:01:54.689Z,40.65
2019-03-25T19:04:24.034Z,40.71
2019-03-25T19:06:54.238Z,40.78
2019-03-25T19:09:24.504Z,40.84
2019-03-25T19:11:56.405Z,40.91
2019-03-25T19:14:27.091Z,40.96
2019-03-25T19:16:57.810Z,41.04
2019-03-25T19:19:29.620Z,41.12
2019-03-25T19:21:59.909Z,41.19
2019-03-25T19:24:30.533Z,41.27
2019-03-25T19:27:01.256Z,41.33
2019-03-25T19:29:33.026Z,41.40
2019-03-25T19:32:06.790Z,41.48
2019-03-25T19:34:35.975Z,41.56
2019-03-25T19:37:07.341Z,41.63
2019-03-25T19:39:39.782Z,41.71
2019-03-25T19:42:11.906Z,41.79
2019-03-25T19:44:42.668Z,41.90
2019-03-25T19:47:12.966Z,41.96
2019-03-25T19:49:43.220Z,42.03
2019-03-25T19:52:17.114Z,42.10
2019-03-25T19:54:49.370Z,42.18
2019-03-25T19:57:20.735Z,42.25
2019-03-25T19:59:51.178Z,42.32
2019-03-25T20:02:21.797Z,42.40
2019-03-25T20:04:52.594Z,42.46
2019-03-25T20:07:23.191Z,42.53
2019-03-25T20:09:55.286Z,42.60
2019-03-25T20:12:25.570Z,42.66
2019-03-25T20:14:55.829Z,42.74
2019-03-25T20:17:28.754Z,42.80
2019-03-25T20:19:59.080Z,42.87
2019-03-25T20:22:29.652Z,42.95
2019-03-25T20:25:00.737Z,43.01
2019-03-25T20:27:32.418Z,43.09
2019-03-25T20:30:02.857Z,43.17
2019-03-25T20:32:34.480Z,43.25
2019-03-25T20:35:06.416Z,43.30
2019-03-25T20:37:38.513Z,43.36
2019-03-25T20:40:09.775Z,43.42
2019-03-25T20:42:41.997Z,43.49
2019-03-25T20:45:12.840Z,43.56
2019-03-25T20:47:43.210Z,43.60
2019-03-25T20:50:14.503Z,43.67
2019-03-25T20:52:44.792Z,43.73
2019-03-25T20:55:15.011Z,43.79
2019-03-25T20:57:45.261Z,43.86
2019-03-25T21:00:16.340Z,43.93
2019-03-25T21:02:47.246Z,43.99
2019-03-25T21:05:17.648Z,44.06
2019-03-25T21:07:47.973Z,44.14
2019-03-25T21:10:18.204Z,44.20
2019-03-25T21:12:48.404Z,44.28
2019-03-25T21:15:18.745Z,44.34
2019-03-25T21:17:50.207Z,44.42
2019-03-25T21:20:21.853Z,44.48
2019-03-25T21:22:52.191Z,44.54
2019-03-25T21:25:22.623Z,44.59
2019-03-25T21:27:52.867Z,44.66
2019-03-25T21:30:28.305Z,44.71
2019-03-25T21:32:58.840Z,44.76
2019-03-25T21:35:29.636Z,44.81
2019-03-25T21:38:00.474Z,44.84
2019-03-25T21:40:30.885Z,44.89
2019-03-25T21:43:01.207Z,44.97
2019-03-25T21:45:31.562Z,45.02
2019-03-25T21:48:01.889Z,45.05
2019-03-25T21:50:32.355Z,45.12
2019-03-25T21:53:03.075Z,45.18
2019-03-25T21:55:33.498Z,45.23
2019-03-25T21:58:03.947Z,45.30
2019-03-25T22:00:34.181Z,45.35
2019-03-25T22:03:11.461Z,45.41
2019-03-25T22:05:36.359Z,45.45
2019-03-25T22:08:06.592Z,45.50
2019-03-25T22:10:36.816Z,45.56
2019-03-25T22:13:07.081Z,45.61
2019-03-25T22:15:37.274Z,45.70
2019-03-25T22:18:07.561Z,45.76
2019-03-25T22:20:39.217Z,45.82
2019-03-25T22:23:09.629Z,45.93
2019-03-25T22:25:40.823Z,46.02
2019-03-25T22:28:12.669Z,46.12
2019-03-25T22:30:43.035Z,46.23
2019-03-25T22:33:25.222Z,46.31
2019-03-25T22:35:50.243Z,46.41
2019-03-25T22:38:20.871Z,46.48
2019-03-25T22:40:51.318Z,46.55
2019-03-25T22:43:23.177Z,46.61
2019-03-25T22:45:53.760Z,46.69
2019-03-25T22:48:24.052Z,46.71
2019-03-25T22:50:54.288Z,46.77
2019-03-25T22:53:24.573Z,46.79
2019-03-25T22:55:54.860Z,46.83
2019-03-25T22:58:25.080Z,46.86
2019-03-25T23:00:55.738Z,46.90
2019-03-25T23:03:38.217Z,46.96
2019-03-25T23:05:58.334Z,46.98
2019-03-25T23:08:28.638Z,47.01
2019-03-25T23:10:59.233Z,47.06
2019-03-25T23:13:29.559Z,47.10
2019-03-25T23:15:59.822Z,47.15
2019-03-25T23:18:30.484Z,47.22
2019-03-25T23:21:00.764Z,47.28
2019-03-25T23:23:31.423Z,47.33
2019-03-25T23:26:01.727Z,47.37
2019-03-25T23:28:32.344Z,47.44
2019-03-25T23:31:02.740Z,47.48
2019-03-25T23:33:33.078Z,47.56
2019-03-25T23:36:03.285Z,47.62
2019-03-25T23:38:34.789Z,47.69
2019-03-25T23:41:05.058Z,47.74
2019-03-25T23:43:35.291Z,47.79
2019-03-25T23:46:05.534Z,47.88
2019-03-25T23:48:35.789Z,47.92
2019-03-25T23:51:06.469Z,47.99
2019-03-25T23:53:36.728Z,48.04
2019-03-25T23:56:06.957Z,48.09
2019-03-25T23:58:37.203Z,48.17
